createdAt,value
2022-08-22T00:00:59.770Z,99605.97
2022-08-22T00:03:06.628Z,99590.06
2022-08-22T00:03:09.129Z,99534.28
2022-08-22T00:03:28.918Z,99589.47
2022-08-22T00:06:11.639Z,99597.88
2022-08-22T00:08:38.506Z,99594.09
2022-08-22T00:11:14.468Z,99591.56
2022-08-22T00:14:01.803Z,99587.38
2022-08-22T00:16:28.925Z,99589.72
2022-08-22T00:19:13.861Z,99590.28
2022-08-22T00:21:56.672Z,99585.00
2022-08-22T00:24:49.591Z,99576.56
2022-08-22T00:27:18.295Z,99580.97
2022-08-22T00:29:56.404Z,99569.16
2022-08-22T00:32:33.260Z,99583.41
2022-08-22T00:35:02.888Z,99584.22
2022-08-22T00:37:33.431Z,99585.91
2022-08-22T00:40:08.144Z,99584.81
2022-08-22T00:42:53.942Z,99591.28
2022-08-22T00:45:26.752Z,99593.78
2022-08-22T00:47:56.401Z,99590.41
2022-08-22T00:50:41.937Z,99582.41
2022-08-22T00:53:08.793Z,99577.31
2022-08-22T00:55:42.942Z,99583.00
2022-08-22T00:58:35.875Z,99590.19
2022-08-22T01:01:06.040Z,99578.97
2022-08-22T01:03:56.009Z,99580.44
2022-08-22T01:06:40.598Z,99579.81
2022-08-22T01:09:19.441Z,99582.75
2022-08-22T01:11:46.344Z,99588.00
2022-08-22T01:14:35.024Z,99589.44
2022-08-22T01:17:14.536Z,99580.50
2022-08-22T01:19:41.390Z,99580.50
2022-08-22T01:22:27.141Z,99588.28
2022-08-22T01:25:00.344Z,99584.94
2022-08-22T01:27:42.253Z,99580.66
2022-08-22T01:30:11.926Z,99585.13
2022-08-22T01:32:57.156Z,99575.41
2022-08-22T01:35:31.074Z,99580.22
2022-08-22T01:38:16.771Z,99580.88
2022-08-22T01:40:53.843Z,99581.72
2022-08-22T01:43:58.535Z,99582.78
2022-08-22T01:46:21.542Z,99582.09
2022-08-22T01:48:56.028Z,99586.56
2022-08-22T01:51:27.051Z,99584.84
2022-08-22T01:54:03.088Z,99582.34
2022-08-22T01:56:35.078Z,99582.53
2022-08-22T01:59:05.067Z,99575.09
2022-08-22T02:01:50.212Z,99582.00
2022-08-22T02:04:17.069Z,99583.06
2022-08-22T02:07:02.504Z,99574.84
2022-08-22T02:09:38.612Z,99575.72
2022-08-22T02:12:32.015Z,99575.72
2022-08-22T02:15:08.065Z,99576.09
2022-08-22T02:17:48.021Z,99584.88
2022-08-22T02:20:20.674Z,99574.13
2022-08-22T02:22:53.655Z,99575.78
2022-08-22T02:25:25.911Z,99575.13
2022-08-22T02:28:13.151Z,99574.31
2022-08-22T02:30:46.203Z,99575.91
2022-08-22T02:33:16.078Z,99572.09
2022-08-22T02:35:51.376Z,99575.91
2022-08-22T02:38:25.224Z,99582.38
2022-08-22T02:41:09.681Z,99568.06
2022-08-22T02:43:57.262Z,99568.94
2022-08-22T02:46:39.876Z,99569.75
2022-08-22T02:49:21.047Z,99567.22
2022-08-22T02:51:50.988Z,99570.56
2022-08-22T02:54:22.436Z,99564.22
2022-08-22T02:56:53.680Z,99564.59
2022-08-22T02:59:20.509Z,99568.41
2022-08-22T03:01:48.092Z,99575.28
2022-08-22T03:04:44.457Z,99566.47
2022-08-22T03:07:14.496Z,99564.28
2022-08-22T03:09:47.554Z,99566.41
2022-08-22T03:12:14.536Z,99570.38
2022-08-22T03:14:44.749Z,99569.06
2022-08-22T03:17:18.818Z,99569.25
2022-08-22T03:20:04.634Z,99567.53
2022-08-22T03:22:38.812Z,99565.84
2022-08-22T03:25:11.680Z,99561.88
2022-08-22T03:27:46.222Z,99559.16
2022-08-22T03:30:21.622Z,99559.16
2022-08-22T03:32:57.083Z,99558.31
2022-08-22T03:35:33.016Z,99564.81
2022-08-22T03:38:17.112Z,99567.09
2022-08-22T03:41:03.195Z,99569.56
2022-08-22T03:43:39.225Z,99572.03
2022-08-22T03:46:24.778Z,99561.28
2022-08-22T03:49:08.149Z,99564.03
2022-08-22T03:51:38.158Z,99560.63
2022-08-22T03:54:23.669Z,99564.59
2022-08-22T03:56:57.485Z,99568.75
2022-08-22T03:59:44.054Z,99572.72
2022-08-22T04:02:43.798Z,99579.03
2022-08-22T04:05:29.804Z,99580.47
2022-08-22T04:07:59.912Z,99582.53
2022-08-22T04:10:39.452Z,99593.63
2022-08-22T04:13:33.893Z,99594.69
2022-08-22T04:16:19.444Z,99595.34
2022-08-22T04:18:49.358Z,99603.75
2022-08-22T04:21:35.653Z,99606.66
2022-08-22T04:24:05.594Z,99606.47
2022-08-22T04:26:51.679Z,99609.03
2022-08-22T04:29:25.742Z,99604.38
2022-08-22T04:32:14.580Z,99610.72
2022-08-22T04:34:48.845Z,99612.41
2022-08-22T04:37:20.723Z,99612.22
2022-08-22T04:39:47.651Z,99611.16
2022-08-22T04:42:32.270Z,99618.34
2022-08-22T04:45:06.154Z,99615.41
2022-08-22T04:47:39.211Z,99620.69
2022-08-22T04:50:42.576Z,99630.19
2022-08-22T04:53:25.456Z,99627.72
2022-08-22T04:55:58.484Z,99625.91
2022-08-22T04:58:28.474Z,99630.03
2022-08-22T05:01:12.204Z,99630.84
2022-08-22T05:03:44.879Z,99633.16
2022-08-22T05:06:13.962Z,99632.06
2022-08-22T05:08:41.882Z,99632.81
2022-08-22T05:11:10.814Z,99644.16
2022-08-22T05:13:44.598Z,99646.41
2022-08-22T05:16:15.066Z,99638.50
2022-08-22T05:18:45.204Z,99642.03
2022-08-22T05:21:13.885Z,99636.66
2022-08-22T05:23:48.211Z,99646.91
2022-08-22T05:26:15.524Z,99656.03
2022-08-22T05:28:48.341Z,99644.25
2022-08-22T05:31:24.977Z,99638.19
2022-08-22T05:33:55.072Z,99635.25
2022-08-22T05:36:24.371Z,99637.56
2022-08-22T05:38:53.872Z,99632.50
2022-08-22T05:41:24.003Z,99636.31
2022-08-22T05:43:52.421Z,99632.72
2022-08-22T05:46:26.782Z,99628.94
2022-08-22T05:49:01.565Z,99630.16
2022-08-22T05:51:39.453Z,99636.84
2022-08-22T05:54:11.414Z,99631.94
2022-08-22T05:56:43.282Z,99623.47
2022-08-22T05:59:23.461Z,99624.69
2022-08-22T06:01:59.373Z,99628.00
2022-08-22T06:04:32.107Z,99630.25
2022-08-22T06:07:13.665Z,99630.84
2022-08-22T06:09:59.173Z,99630.72
2022-08-22T06:12:38.262Z,99630.56
2022-08-22T06:15:14.251Z,99637.63
2022-08-22T06:17:48.758Z,99644.38
2022-08-22T06:20:23.696Z,99639.69
2022-08-22T06:22:55.838Z,99628.06
2022-08-22T06:25:25.512Z,99636.19
2022-08-22T06:27:53.239Z,99633.47
2022-08-22T06:30:20.481Z,99637.44
2022-08-22T06:32:59.767Z,99640.38
2022-08-22T06:35:33.294Z,99639.09
2022-08-22T06:38:00.435Z,99633.13
2022-08-22T06:40:28.175Z,99644.22
2022-08-22T06:42:57.076Z,99640.59
2022-08-22T06:45:31.957Z,99637.59
2022-08-22T06:48:05.291Z,99637.50
2022-08-22T06:50:34.795Z,99641.91
2022-08-22T06:53:34.918Z,99655.72
2022-08-22T06:56:02.979Z,99658.25
2022-08-22T06:58:34.115Z,99657.03
2022-08-22T07:01:12.179Z,99659.50
2022-08-22T07:03:54.217Z,99663.38
2022-08-22T07:06:28.474Z,99664.56
2022-08-22T07:08:55.747Z,99664.03
2022-08-22T07:11:26.088Z,99668.28
2022-08-22T07:14:14.150Z,99666.41
2022-08-22T07:16:46.726Z,99660.31
2022-08-22T07:19:23.510Z,99656.31
2022-08-22T07:21:57.443Z,99662.03
2022-08-22T07:24:27.303Z,99669.28
2022-08-22T07:27:06.702Z,99672.81
2022-08-22T07:29:41.571Z,99675.84
2022-08-22T07:32:25.224Z,99686.38
2022-08-22T07:35:11.610Z,99682.78
2022-08-22T07:37:38.579Z,99683.50
2022-08-22T07:40:26.808Z,99681.03
2022-08-22T07:42:59.591Z,99676.63
2022-08-22T07:45:45.176Z,99675.41
2022-08-22T07:48:25.392Z,99674.59
2022-08-22T07:50:52.658Z,99674.22
2022-08-22T07:53:22.553Z,99677.41
2022-08-22T07:55:53.245Z,99669.16
2022-08-22T07:58:21.708Z,99669.38
2022-08-22T08:00:48.819Z,99673.91
2022-08-22T08:03:16.087Z,99677.31
2022-08-22T08:05:46.434Z,99675.91
2022-08-22T08:08:29.197Z,99685.69
2022-08-22T08:10:57.397Z,99673.72
2022-08-22T08:13:35.419Z,99675.09
2022-08-22T08:16:04.781Z,99676.47
2022-08-22T08:18:34.041Z,99677.84
2022-08-22T08:21:06.828Z,99673.03
2022-08-22T08:23:41.073Z,99666.31
2022-08-22T08:26:20.784Z,99669.94
2022-08-22T08:28:49.273Z,99671.03
2022-08-22T08:31:19.280Z,99670.94
2022-08-22T08:33:48.001Z,99665.38
2022-08-22T08:36:26.829Z,99668.81
2022-08-22T08:39:07.475Z,99669.47
2022-08-22T08:41:46.870Z,99672.13
2022-08-22T08:44:32.504Z,99673.78
2022-08-22T08:47:18.170Z,99665.63
2022-08-22T08:50:03.843Z,99667.13
2022-08-22T08:52:39.160Z,99665.41
2022-08-22T08:55:25.996Z,99664.88
2022-08-22T08:58:06.550Z,99663.59
2022-08-22T09:00:43.450Z,99665.19
2022-08-22T09:03:29.829Z,99668.78
2022-08-22T09:06:16.813Z,99673.88
2022-08-22T09:08:59.121Z,99667.50
2022-08-22T09:11:49.941Z,99664.31
2022-08-22T09:14:36.112Z,99678.78
2022-08-22T09:17:22.102Z,99673.94
2022-08-22T09:20:17.585Z,99666.59
2022-08-22T09:23:05.055Z,99660.00
2022-08-22T09:25:40.950Z,99667.69
2022-08-22T09:28:07.894Z,99653.72
2022-08-22T09:30:43.893Z,99652.63
2022-08-22T09:33:17.563Z,99664.38
2022-08-22T09:36:05.186Z,99660.28
2022-08-22T09:38:38.692Z,99660.81
2022-08-22T09:41:08.533Z,99652.75
2022-08-22T09:43:45.107Z,99656.13
2022-08-22T09:46:15.630Z,99652.00
2022-08-22T09:49:01.816Z,99653.94
2022-08-22T09:51:35.530Z,99661.28
2022-08-22T09:54:21.337Z,99648.69
2022-08-22T09:56:51.784Z,99644.66
2022-08-22T09:59:20.502Z,99634.28
2022-08-22T10:01:47.476Z,99636.75
2022-08-22T10:04:14.530Z,99633.22
2022-08-22T10:07:06.467Z,99640.34
2022-08-22T10:09:38.881Z,99628.06
2022-08-22T10:12:15.838Z,99631.72
2022-08-22T10:14:51.230Z,99630.59
2022-08-22T10:17:28.180Z,99624.00
2022-08-22T10:19:58.994Z,99622.63
2022-08-22T10:22:29.936Z,99625.19
2022-08-22T10:24:58.532Z,99622.34
2022-08-22T10:27:36.601Z,99615.50
2022-08-22T10:30:11.771Z,99622.47
2022-08-22T10:32:50.178Z,99626.94
2022-08-22T10:35:26.568Z,99617.81
2022-08-22T10:37:56.239Z,99613.13
2022-08-22T10:40:29.271Z,99612.91
2022-08-22T10:43:09.357Z,99612.59
2022-08-22T10:45:39.732Z,99614.25
2022-08-22T10:48:19.061Z,99609.66
2022-08-22T10:50:56.643Z,99613.09
2022-08-22T10:53:40.558Z,99608.31
2022-08-22T10:56:14.584Z,99610.91
2022-08-22T10:58:49.054Z,99602.72
2022-08-22T11:01:41.080Z,99598.41
2022-08-22T11:04:16.341Z,99594.28
2022-08-22T11:06:48.956Z,99598.53
2022-08-22T11:09:37.025Z,99598.53
2022-08-22T11:12:34.861Z,99600.47
2022-08-22T11:15:14.629Z,99595.28
2022-08-22T11:18:07.304Z,99598.09
2022-08-22T11:20:46.289Z,99593.81
2022-08-22T11:23:23.600Z,99592.16
2022-08-22T11:26:05.046Z,99597.06
2022-08-22T11:28:50.871Z,99590.28
2022-08-22T11:31:47.199Z,99583.31
2022-08-22T11:34:24.973Z,99579.50
2022-08-22T11:37:00.508Z,99582.00
2022-08-22T11:39:28.083Z,99572.94
2022-08-22T11:41:59.880Z,99567.91
2022-08-22T11:44:34.495Z,99562.16
2022-08-22T11:47:19.058Z,99555.47
2022-08-22T11:50:00.291Z,99568.78
2022-08-22T11:52:39.320Z,99570.00
2022-08-22T11:55:21.766Z,99569.34
2022-08-22T11:57:50.959Z,99572.97
2022-08-22T12:00:30.245Z,99572.03
2022-08-22T12:02:57.128Z,99570.06
2022-08-22T12:05:29.334Z,99563.03
2022-08-22T12:08:21.338Z,99565.44
2022-08-22T12:11:07.246Z,99556.88
2022-08-22T12:13:37.357Z,99564.81
2022-08-22T12:16:13.333Z,99555.13
2022-08-22T12:18:43.238Z,99560.91
2022-08-22T12:21:18.111Z,99554.41
2022-08-22T12:23:54.651Z,99556.59
2022-08-22T12:26:27.699Z,99551.41
2022-08-22T12:28:57.494Z,99544.72
2022-08-22T12:31:34.737Z,99542.78
2022-08-22T12:34:09.079Z,99541.66
2022-08-22T12:36:52.051Z,99530.22
2022-08-22T12:39:29.159Z,99528.47
2022-08-22T12:42:14.680Z,99526.72
2022-08-22T12:45:01.823Z,99523.31
2022-08-22T12:47:31.970Z,99517.47
2022-08-22T12:50:19.264Z,99518.84
2022-08-22T12:52:58.506Z,99510.69
2022-08-22T12:55:30.661Z,99508.56
2022-08-22T12:58:06.358Z,99508.38
2022-08-22T13:00:44.088Z,99503.91
2022-08-22T13:03:24.921Z,99498.91
2022-08-22T13:05:57.032Z,99499.75
2022-08-22T13:08:36.418Z,99504.72
2022-08-22T13:11:10.009Z,99502.25
2022-08-22T13:13:44.877Z,99496.75
2022-08-22T13:16:24.435Z,99498.41
2022-08-22T13:18:54.134Z,99498.56
2022-08-22T13:21:27.557Z,99481.72
2022-08-22T13:24:04.171Z,99485.13
2022-08-22T13:26:34.522Z,99487.63
2022-08-22T13:29:25.820Z,99489.59
2022-08-22T13:31:56.259Z,99491.94
2022-08-22T13:34:39.991Z,99488.88
2022-08-22T13:37:12.000Z,99490.13
2022-08-22T13:39:42.344Z,99483.25
2022-08-22T13:42:21.211Z,99489.31
2022-08-22T13:44:58.225Z,99487.84
2022-08-22T13:47:26.416Z,99485.50
2022-08-22T13:50:07.875Z,99484.66
2022-08-22T13:52:38.137Z,99489.63
2022-08-22T13:55:12.177Z,99478.09
2022-08-22T13:57:59.824Z,99474.63
2022-08-22T14:00:48.694Z,99469.91
2022-08-22T14:03:31.366Z,99478.34
2022-08-22T14:06:32.812Z,99467.38
2022-08-22T14:08:47.502Z,99472.56
2022-08-22T14:11:18.235Z,99472.91
2022-08-22T14:13:57.771Z,99469.66
2022-08-22T14:16:27.303Z,99464.16
2022-08-22T14:19:06.767Z,99464.13
2022-08-22T14:21:41.278Z,99454.13
2022-08-22T14:24:14.357Z,99456.06
2022-08-22T14:26:49.127Z,99459.88
2022-08-22T14:29:16.960Z,99453.19
2022-08-22T14:32:04.173Z,99447.03
2022-08-22T14:34:34.065Z,99448.31
2022-08-22T14:37:15.341Z,99449.47
2022-08-22T14:39:54.945Z,99447.53
2022-08-22T14:42:25.498Z,99449.09
2022-08-22T14:45:01.749Z,99445.19
2022-08-22T14:47:55.105Z,99441.16
2022-08-22T14:50:54.275Z,99439.09
2022-08-22T14:53:32.872Z,99439.31
2022-08-22T14:56:06.555Z,99431.19
2022-08-22T14:58:45.621Z,99430.03
2022-08-22T15:01:15.250Z,99424.72
2022-08-22T15:03:42.710Z,99425.69
2022-08-22T15:06:14.706Z,99424.94
2022-08-22T15:08:51.066Z,99423.38
2022-08-22T15:11:21.788Z,99419.56
2022-08-22T15:13:56.936Z,99420.94
2022-08-22T15:16:29.260Z,99416.91
2022-08-22T15:18:56.257Z,99416.00
2022-08-22T15:21:25.789Z,99410.78
2022-08-22T15:23:54.352Z,99412.97
2022-08-22T15:26:26.115Z,99412.25
2022-08-22T15:29:04.489Z,99411.75
2022-08-22T15:31:43.554Z,99409.66
2022-08-22T15:34:19.869Z,99404.94
2022-08-22T15:37:27.026Z,99409.81
2022-08-22T15:39:59.304Z,99400.22
2022-08-22T15:42:30.155Z,99393.84
2022-08-22T15:45:04.992Z,99399.50
2022-08-22T15:47:46.645Z,99396.19
2022-08-22T15:50:27.978Z,99396.31
2022-08-22T15:52:59.723Z,99392.41
2022-08-22T15:55:34.287Z,99390.03
2022-08-22T15:58:07.174Z,99386.38
2022-08-22T16:00:36.389Z,99386.09
2022-08-22T16:03:10.837Z,99380.81
2022-08-22T16:05:41.250Z,99385.41
2022-08-22T16:08:18.256Z,99386.94
2022-08-22T16:10:54.837Z,99387.84
2022-08-22T16:13:27.632Z,99381.06
2022-08-22T16:16:06.726Z,99376.97
2022-08-22T16:18:33.588Z,99375.09
2022-08-22T16:21:03.566Z,99377.91
2022-08-22T16:23:50.416Z,99378.00
2022-08-22T16:26:17.269Z,99378.84
2022-08-22T16:29:00.755Z,99380.84
2022-08-22T16:31:30.769Z,99380.91
2022-08-22T16:34:15.871Z,99383.63
2022-08-22T16:37:11.592Z,99374.66
2022-08-22T16:39:43.436Z,99381.66
2022-08-22T16:42:13.317Z,99377.81
2022-08-22T16:44:45.815Z,99376.22
2022-08-22T16:47:21.343Z,99378.47
2022-08-22T16:49:51.362Z,99378.56
2022-08-22T16:52:21.297Z,99375.00
2022-08-22T16:55:07.528Z,99371.38
2022-08-22T16:58:05.688Z,99379.25
2022-08-22T17:00:36.280Z,99366.31
2022-08-22T17:03:21.877Z,99370.50
2022-08-22T17:06:01.012Z,99367.19
2022-08-22T17:08:36.960Z,99377.47
2022-08-22T17:11:36.214Z,99374.44
2022-08-22T17:14:16.148Z,99373.91
2022-08-22T17:16:58.323Z,99375.31
2022-08-22T17:19:30.851Z,99373.06
2022-08-22T17:22:01.225Z,99372.50
2022-08-22T17:24:54.600Z,99372.22
2022-08-22T17:27:27.694Z,99366.66
2022-08-22T17:30:04.766Z,99378.38
2022-08-22T17:32:46.959Z,99373.91
2022-08-22T17:35:33.540Z,99374.16
2022-08-22T17:38:00.622Z,99373.59
2022-08-22T17:40:36.466Z,99383.59
2022-08-22T17:43:15.570Z,99381.94
2022-08-22T17:45:45.439Z,99377.72
2022-08-22T17:48:12.279Z,99377.72
2022-08-22T17:50:45.232Z,99385.53
2022-08-22T17:53:24.429Z,99379.94
2022-08-22T17:55:51.321Z,99384.09
2022-08-22T17:58:31.708Z,99383.22
2022-08-22T18:01:10.594Z,99384.28
2022-08-22T18:03:40.029Z,99388.72
2022-08-22T18:06:09.984Z,99390.09
2022-08-22T18:11:38.812Z,99391.94
2022-08-22T18:14:19.160Z,99389.72
2022-08-22T18:16:47.843Z,99392.75
2022-08-22T18:19:23.827Z,99393.84
2022-08-22T18:22:03.611Z,99399.56
2022-08-22T18:24:33.223Z,99406.13
2022-08-22T18:27:34.220Z,99402.16
2022-08-22T18:30:07.276Z,99398.66
2022-08-22T18:32:37.165Z,99399.44
2022-08-22T18:35:12.202Z,99408.53
2022-08-22T18:37:43.003Z,99407.03
2022-08-22T18:40:28.930Z,99400.81
2022-08-22T18:43:08.179Z,99413.22
2022-08-22T18:45:44.741Z,99420.00
2022-08-22T18:48:36.614Z,99418.03
2022-08-22T18:51:22.445Z,99422.09
2022-08-22T18:53:51.353Z,99425.91
2022-08-22T18:56:37.062Z,99428.31
2022-08-22T18:59:10.147Z,99429.88
2022-08-22T19:01:55.710Z,99434.47
2022-08-22T19:04:25.658Z,99423.50
2022-08-22T19:07:11.029Z,99427.56
2022-08-22T19:09:49.312Z,99431.34
2022-08-22T19:12:16.443Z,99434.81
2022-08-22T19:14:43.394Z,99433.56
2022-08-22T19:17:22.623Z,99441.97
2022-08-22T19:19:49.546Z,99443.41
2022-08-22T19:22:19.433Z,99446.59
2022-08-22T19:25:09.076Z,99443.88
2022-08-22T19:27:39.011Z,99442.44
2022-08-22T19:30:08.648Z,99439.34
2022-08-22T19:32:46.864Z,99447.59
2022-08-22T19:35:19.937Z,99456.63
2022-08-22T19:37:58.645Z,99463.16
2022-08-22T19:40:48.102Z,99466.81
2022-08-22T19:43:30.323Z,99462.34
2022-08-22T19:45:59.722Z,99454.19
2022-08-22T19:48:40.636Z,99450.31
2022-08-22T19:51:27.922Z,99456.59
2022-08-22T19:54:01.060Z,99458.63
2022-08-22T19:56:49.635Z,99458.69
2022-08-22T19:59:25.706Z,99455.22
2022-08-22T20:01:52.660Z,99469.41
2022-08-22T20:04:30.781Z,99462.81
2022-08-22T20:07:14.691Z,99477.63
2022-08-22T20:10:02.241Z,99485.78
2022-08-22T20:12:29.113Z,99495.53
2022-08-22T20:14:56.325Z,99490.38
2022-08-22T20:17:26.348Z,99491.34
2022-08-22T20:22:40.126Z,99497.47
2022-08-22T20:25:06.988Z,99500.69
2022-08-22T20:28:00.105Z,99508.88
2022-08-22T20:30:29.369Z,99500.47
2022-08-22T20:33:09.239Z,99504.91
2022-08-22T20:35:41.195Z,99506.09
2022-08-22T20:38:14.752Z,99499.00
2022-08-22T20:40:55.629Z,99509.25
2022-08-22T20:43:24.323Z,99499.97
2022-08-22T20:46:15.403Z,99509.09
2022-08-22T20:48:43.645Z,99512.91
2022-08-22T20:51:14.049Z,99510.13
2022-08-22T20:53:41.557Z,99505.22
2022-08-22T20:56:08.561Z,99511.09
2022-08-22T20:58:39.456Z,99507.47
2022-08-22T21:01:09.893Z,99497.75
2022-08-22T21:03:36.951Z,99509.84
2022-08-22T21:06:28.171Z,99509.28
2022-08-22T21:09:09.608Z,99517.22
2022-08-22T21:11:36.527Z,99511.09
2022-08-22T21:14:17.153Z,99517.34
2022-08-22T21:16:44.082Z,99513.09
2022-08-22T21:19:17.467Z,99519.25
2022-08-22T21:21:44.413Z,99520.09
2022-08-22T21:24:11.333Z,99525.88
2022-08-22T21:26:46.146Z,99533.81
2022-08-22T21:29:13.042Z,99530.56
2022-08-22T21:31:42.913Z,99530.56
2022-08-22T21:34:14.553Z,99533.69
2022-08-22T21:36:41.685Z,99537.66
2022-08-22T21:39:23.777Z,99533.69
2022-08-22T21:41:53.437Z,99538.41
2022-08-22T21:44:43.369Z,99539.84
2022-08-22T21:47:16.546Z,99556.19
2022-08-22T21:49:58.293Z,99548.81
2022-08-22T21:52:26.099Z,99540.91
2022-08-22T21:54:53.013Z,99543.28
2022-08-22T21:57:31.445Z,99547.06
2022-08-22T21:59:58.830Z,99546.06
2022-08-22T22:02:29.478Z,99553.19
2022-08-22T22:04:58.933Z,99559.91
2022-08-22T22:07:26.595Z,99558.44
2022-08-22T22:09:54.926Z,99550.81
2022-08-22T22:12:23.125Z,99563.34
2022-08-22T22:14:50.500Z,99555.50
2022-08-22T22:17:18.242Z,99561.81
2022-08-22T22:19:45.345Z,99568.16
2022-08-22T22:22:13.304Z,99569.50
2022-08-22T22:24:40.200Z,99568.63
2022-08-22T22:27:07.200Z,99570.81
2022-08-22T22:29:34.565Z,99580.56
2022-08-22T22:32:01.707Z,99576.09
2022-08-22T22:34:28.619Z,99577.78
2022-08-22T22:36:55.599Z,99586.91
2022-08-22T22:39:22.538Z,99584.16
2022-08-22T22:41:49.428Z,99590.16
2022-08-22T22:44:16.303Z,99591.44
2022-08-22T22:46:43.245Z,99586.81
2022-08-22T22:49:10.219Z,99590.53
2022-08-22T22:51:37.213Z,99588.34
2022-08-22T22:54:04.229Z,99596.41
2022-08-22T22:56:31.552Z,99600.03
2022-08-22T22:59:01.166Z,99597.25
2022-08-22T23:01:59.213Z,99597.41
2022-08-22T23:04:26.132Z,99607.16
2022-08-22T23:06:53.090Z,99607.97
2022-08-22T23:09:20.023Z,99600.19
2022-08-22T23:11:47.359Z,99604.16
2022-08-22T23:14:14.291Z,99607.16
2022-08-22T23:16:41.246Z,99612.69
2022-08-22T23:19:09.196Z,99607.81
2022-08-22T23:21:36.174Z,99620.66
2022-08-22T23:24:03.519Z,99623.09
2022-08-22T23:26:30.541Z,99609.50
2022-08-22T23:28:57.774Z,99618.56
2022-08-22T23:31:33.915Z,99613.16
2022-08-22T23:34:03.342Z,99618.13
2022-08-22T23:36:30.291Z,99627.91
2022-08-22T23:38:57.247Z,99620.06
2022-08-22T23:41:24.224Z,99622.38
2022-08-22T23:43:52.476Z,99624.47
2022-08-22T23:46:21.191Z,99625.56
2022-08-22T23:48:48.318Z,99625.44
2022-08-22T23:51:17.289Z,99619.00
2022-08-22T23:53:50.654Z,99624.53
2022-08-22T23:56:20.107Z,99620.91
2022-08-22T23:58:49.297Z,99624.31
